Time;durP1;ratioP1;P1;durP2;ratioP2;P2;SDS_P1;SDS_P2;PMS_P1;PMS_P2;Temp;Humidity;BMP_temperature;BMP_pressure;BME280_temperature;BME280_humidity;BME280_pressure;Samples;Min_cycle;Max_cycle;Signal;HPM_P1;HPM_P2
2021/04/22 00:00:10;;;;;;;13.35;9.07;;;11.90;66.70;;;10.86;54.87;98448.56;5144131;27;20406;-80
2021/04/22 00:02:38;;;;;;;17.02;9.25;;;11.80;67.10;;;11.00;54.21;98449.19;5147630;27;20446;-80
2021/04/22 00:05:19;;;;;;;14.52;9.48;;;11.90;66.80;;;11.09;54.22;98448.63;5145827;27;20418;-80
2021/04/22 00:07:46;;;;;;;14.52;9.13;;;12.00;66.50;;;11.14;53.85;98445.28;5151318;27;20564;-80
2021/04/22 00:10:16;;;;;;;16.25;9.68;;;12.00;66.10;;;11.39;53.93;98447.75;5157392;27;20398;-79
2021/04/22 00:12:43;;;;;;;13.23;8.85;;;12.10;66.40;;;11.35;53.95;98450.03;5139231;27;20491;-80
2021/04/22 00:15:14;;;;;;;15.45;10.00;;;12.20;65.90;;;11.43;53.65;98451.53;5151938;27;20410;-79
2021/04/22 00:17:41;;;;;;;16.58;9.45;;;12.30;65.80;;;11.43;53.73;98449.69;5146438;27;20438;-78
2021/04/22 00:20:10;;;;;;;17.92;9.43;;;12.30;65.90;;;11.43;53.82;98455.00;5128278;27;20472;-80
2021/04/22 00:22:36;;;;;;;13.65;9.00;;;12.40;65.70;;;11.34;53.85;98453.75;5153090;27;20403;-80
2021/04/22 00:25:05;;;;;;;15.93;9.63;;;12.20;65.90;;;11.31;53.51;98450.72;5151061;27;20410;-80
2021/04/22 00:27:31;;;;;;;16.40;9.85;;;12.20;65.80;;;11.16;54.20;98451.97;5150293;27;20461;-80
2021/04/22 00:29:57;;;;;;;15.25;9.68;;;12.20;66.10;;;11.00;54.79;98457.13;5151229;27;20410;-80
2021/04/22 00:32:24;;;;;;;19.13;10.63;;;12.00;66.60;;;10.97;54.76;98457.59;5131120;27;20399;-80
2021/04/22 00:34:51;;;;;;;18.98;9.95;;;11.90;67.10;;;10.99;54.80;98458.16;5150023;27;20437;-80
2021/04/22 00:37:17;;;;;;;17.33;10.57;;;11.90;67.10;;;11.09;54.17;98453.13;5148472;27;20482;-80
2021/04/22 00:39:43;;;;;;;18.63;10.33;;;12.00;66.80;;;11.14;54.11;98453.25;5145846;27;20497;-80
2021/04/22 00:42:10;;;;;;;18.70;9.85;;;12.10;66.30;;;11.11;54.04;98457.16;5127701;27;20485;-80
2021/04/22 00:44:37;;;;;;;15.25;9.82;;;12.10;66.40;;;11.14;54.40;98459.34;5146422;27;20417;-80
2021/04/22 00:47:03;;;;;;;19.70;10.13;;;12.10;66.60;;;11.22;54.17;98455.56;5151357;27;20418;-79
2021/04/22 00:49:30;;;;;;;15.80;9.65;;;12.10;66.50;;;11.23;54.27;98451.88;5156808;27;20422;-80
2021/04/22 00:51:58;;;;;;;19.27;10.80;;;12.10;66.50;;;11.30;54.33;98454.41;5157020;27;20497;-80
2021/04/22 00:54:24;;;;;;;17.17;10.45;;;12.20;66.80;;;11.23;56.30;98457.19;5137163;27;20416;-80
2021/04/22 00:56:50;;;;;;;22.08;12.80;;;12.20;68.60;;;11.06;58.50;98457.03;5148920;27;20401;-79
2021/04/22 00:59:17;;;;;;;21.40;14.20;;;12.00;71.20;;;11.01;60.08;98456.09;5152389;27;20415;-79
2021/04/22 01:01:43;;;;;;;26.85;14.82;;;12.00;73.40;;;10.85;61.25;98454.91;5151458;27;20405;-79
2021/04/22 01:04:09;;;;;;;25.15;15.10;;;11.80;74.90;;;10.81;62.46;98454.56;5149799;27;20402;-80
2021/04/22 01:06:37;;;;;;;25.63;16.08;;;11.80;76.40;;;10.87;62.92;98450.19;5145026;27;20418;-80
2021/04/22 01:09:06;;;;;;;24.23;16.27;;;11.80;77.30;;;10.99;62.81;98436.97;5131289;27;20409;-78
2021/04/22 01:11:32;;;;;;;26.80;16.95;;;11.90;77.20;;;11.00;63.75;98428.78;5151210;28;20413;-78
2021/04/22 01:13:58;;;;;;;22.33;16.57;;;12.00;78.30;;;11.09;64.62;98431.94;5128241;27;20459;-80
2021/04/22 01:16:25;;;;;;;23.02;14.85;;;12.00;78.90;;;11.11;63.92;98433.31;5124895;28;20439;-81
2021/04/22 01:18:51;;;;;;;31.63;17.00;;;12.00;78.30;;;11.27;64.57;98437.16;5143577;27;20409;-80
2021/04/22 01:21:24;;;;;;;23.00;15.77;;;12.10;79.50;;;11.30;63.50;98431.38;5144521;27;20403;-80
2021/04/22 01:23:51;;;;;;;27.13;16.38;;;12.20;77.90;;;11.16;65.14;98436.09;5143257;27;20450;-80
2021/04/22 01:26:22;;;;;;;25.15;15.73;;;12.20;79.90;;;10.93;65.99;98441.34;5145229;27;20403;-80
2021/04/22 01:28:49;;;;;;;25.45;16.48;;;12.00;80.60;;;10.89;66.42;98434.09;5145197;27;20417;-80
2021/04/22 01:31:16;;;;;;;26.75;18.33;;;11.90;81.30;;;10.85;66.95;98436.38;5145193;27;20408;-80
2021/04/22 01:33:44;;;;;;;26.08;17.67;;;11.80;82.00;;;10.86;67.02;98448.56;5145515;27;20425;-80
2021/04/22 01:36:10;;;;;;;24.98;17.70;;;11.80;82.10;;;10.86;67.64;98440.63;5127648;27;20511;-80
2021/04/22 01:38:38;;;;;;;29.02;19.58;;;11.80;82.90;;;10.73;68.61;98443.47;5145265;27;20403;-80
2021/04/22 01:41:05;;;;;;;29.58;20.15;;;11.70;83.60;;;10.68;69.03;98435.38;5147506;28;20489;-80
2021/04/22 01:43:32;;;;;;;32.28;20.73;;;11.60;84.30;;;10.44;69.60;98445.13;5146610;27;20488;-80
2021/04/22 01:46:00;;;;;;;28.83;20.30;;;11.50;84.60;;;10.28;70.15;98453.66;5146092;28;20405;-80
2021/04/22 01:48:29;;;;;;;28.35;20.30;;;11.30;85.70;;;10.37;69.78;98458.44;5146972;27;20520;-80
2021/04/22 01:50:56;;;;;;;28.98;19.45;;;11.30;85.50;;;10.52;68.90;98458.03;5148379;27;20462;-80
2021/04/22 01:53:23;;;;;;;28.38;19.45;;;11.40;84.90;;;10.66;68.74;98463.97;5147929;27;20681;-80
2021/04/22 01:55:52;;;;;;;32.30;20.10;;;11.50;84.50;;;10.55;69.13;98470.81;5146437;27;20484;-80
2021/04/22 01:58:21;;;;;;;30.33;19.73;;;11.50;84.80;;;10.58;69.47;98474.84;5142584;27;20730;-80
2021/04/22 02:00:52;;;;;;;27.13;19.67;;;11.50;85.10;;;10.60;66.98;98475.44;5142493;27;20761;-80
2021/04/22 02:03:19;;;;;;;28.75;18.58;;;11.60;82.90;;;10.10;67.40;98471.13;5128236;27;20440;-79
2021/04/22 02:05:45;;;;;;;29.75;17.20;;;11.20;82.40;;;9.93;68.38;98482.50;5132954;28;20429;-80
2021/04/22 02:08:14;;;;;;;33.25;20.40;;;10.90;83.60;;;9.92;68.78;98486.19;5150475;27;20418;-81
2021/04/22 02:10:41;;;;;;;35.08;22.25;;;10.90;84.20;;;9.94;68.23;98482.28;5145666;27;20487;-81
2021/04/22 02:13:11;;;;;;;34.45;24.08;;;10.90;84.10;;;9.98;68.23;98485.31;5143805;27;20414;-80
2021/04/22 02:15:38;;;;;;;37.13;23.67;;;10.90;84.00;;;9.94;68.30;98494.72;5144646;27;20410;-81
2021/04/22 02:18:05;;;;;;;39.35;23.70;;;10.90;83.90;;;9.93;67.99;98495.72;5143777;27;20390;-81
2021/04/22 02:20:32;;;;;;;38.85;24.13;;;10.90;83.50;;;10.02;67.83;98502.34;5145962;27;20800;-80
2021/04/22 02:22:59;;;;;;;36.13;25.08;;;10.90;83.50;;;10.06;67.22;98498.25;5147588;27;20431;-80
2021/04/22 02:25:28;;;;;;;36.30;25.23;;;11.00;82.70;;;10.17;67.44;98494.03;5147334;27;20417;-80
2021/04/22 02:27:56;;;;;;;36.55;23.50;;;11.10;83.20;;;9.96;66.90;98504.03;5146996;27;20447;-80
2021/04/22 02:30:28;;;;;;;41.40;26.08;;;11.00;81.90;;;9.78;67.44;98501.38;5146901;27;20477;-80
2021/04/22 02:32:55;;;;;;;39.88;27.35;;;10.80;82.60;;;9.83;67.48;98487.50;5147302;27;20426;-80
2021/04/22 02:35:25;;;;;;;41.38;27.33;;;10.80;83.00;;;9.95;67.28;98501.63;5147048;27;20421;-80
2021/04/22 02:37:51;;;;;;;42.88;28.33;;;10.90;82.80;;;10.16;67.51;98503.00;5147030;27;20391;-81
2021/04/22 02:40:22;;;;;;;37.30;27.52;;;11.00;83.40;;;10.15;67.27;98509.34;5146268;27;20410;-80
2021/04/22 02:42:48;;;;;;;42.13;27.40;;;11.10;82.50;;;10.37;66.41;98518.50;5147433;27;20426;-81
2021/04/22 02:45:20;;;;;;;45.67;27.90;;;11.10;81.90;;;10.26;66.34;98517.38;5147014;27;20487;-81
2021/04/22 02:47:47;;;;;;;39.00;27.55;;;11.30;81.80;;;10.26;66.51;98520.03;5146852;27;20445;-81
2021/04/22 02:50:18;;;;;;;36.13;26.05;;;11.20;81.70;;;10.37;67.04;98514.00;5129294;27;20413;-81
2021/04/22 02:52:45;;;;;;;60.72;37.80;;;11.20;82.80;;;10.35;67.51;98516.06;5146555;27;20395;-81
2021/04/22 02:55:13;;;;;;;36.15;27.27;;;11.30;82.80;;;10.40;66.62;98512.75;5146559;27;20445;-80
2021/04/22 02:57:39;;;;;;;38.83;26.90;;;11.40;82.40;;;10.50;65.69;98517.53;5147198;27;20409;-80
2021/04/22 03:00:09;;;;;;;39.47;27.95;;;11.30;81.40;;;10.62;65.37;98523.66;5146086;27;20414;-81
2021/04/22 03:02:35;;;;;;;39.15;27.13;;;11.50;81.00;;;10.64;64.50;98534.84;5146547;27;20432;-81
2021/04/22 03:05:05;;;;;;;40.80;27.00;;;11.60;79.80;;;10.15;65.65;98533.16;5146327;27;20441;-80
2021/04/22 03:07:31;;;;;;;41.72;27.88;;;11.30;80.20;;;9.87;66.76;98523.88;5145221;27;20661;-80
2021/04/22 03:09:58;;;;;;;44.03;30.83;;;10.90;81.70;;;9.82;67.06;98529.00;5145851;27;20407;-81
2021/04/22 03:12:24;;;;;;;44.70;31.17;;;10.80;82.10;;;9.88;66.89;98527.31;5145146;27;20438;-80
2021/04/22 03:14:50;;;;;;;45.22;29.90;;;10.80;82.20;;;9.93;66.57;98527.47;5146305;27;20799;-80
2021/04/22 03:17:17;;;;;;;43.50;30.25;;;10.80;82.10;;;9.97;66.88;98533.94;5146455;27;20467;-80
2021/04/22 03:19:43;;;;;;;43.60;29.75;;;10.90;82.20;;;9.90;66.69;98534.03;5145086;27;20414;-81
2021/04/22 03:22:10;;;;;;;40.72;30.08;;;10.90;81.90;;;9.84;67.04;98531.44;5145488;27;20395;-80
2021/04/22 03:24:36;;;;;;;39.05;28.20;;;10.80;82.20;;;9.88;66.47;98538.72;5126747;27;20437;-80
2021/04/22 03:27:04;;;;;;;45.05;29.65;;;10.80;81.80;;;9.82;67.58;98541.41;5144601;27;20444;-80
2021/04/22 03:29:30;;;;;;;42.75;27.13;;;10.80;82.60;;;9.50;67.32;98551.25;5143994;27;20415;-80
2021/04/22 03:31:56;;;;;;;45.05;29.10;;;10.60;82.20;;;9.47;68.04;98547.19;5126539;27;20484;-80
2021/04/22 03:34:22;;;;;;;42.75;28.33;;;10.50;83.10;;;9.59;67.24;98556.06;5145042;27;20466;-80
2021/04/22 03:36:48;;;;;;;41.17;27.40;;;10.50;82.80;;;9.59;67.26;98549.97;5145193;27;20712;-81
2021/04/22 03:39:15;;;;;;;43.90;29.15;;;10.60;82.70;;;9.66;67.52;98558.63;5144585;27;20413;-80
2021/04/22 03:41:41;;;;;;;38.53;25.85;;;10.60;82.70;;;9.60;66.24;98555.03;5144932;27;20634;-80
2021/04/22 03:44:08;;;;;;;40.17;25.55;;;10.60;81.40;;;9.64;66.43;98555.41;5144503;27;20398;-80
2021/04/22 03:46:34;;;;;;;39.53;26.08;;;10.60;81.60;;;9.56;66.65;98558.31;5144407;27;20402;-80
2021/04/22 03:49:01;;;;;;;36.80;24.15;;;10.50;81.90;;;9.64;65.87;98560.69;5146067;27;20433;-80
2021/04/22 03:51:28;;;;;;;37.95;24.02;;;10.60;81.20;;;9.28;67.04;98562.19;5145257;27;20394;-80
2021/04/22 03:53:55;;;;;;;34.58;23.50;;;10.40;81.70;;;9.31;67.13;98560.94;5145341;27;20475;-80
2021/04/22 03:56:22;;;;;;;38.72;23.23;;;10.30;82.20;;;9.03;67.93;98566.59;5145222;27;20418;-80
2021/04/22 03:58:48;;;;;;;38.58;24.25;;;10.10;82.80;;;8.88;68.25;98579.25;5144768;27;20933;-80
2021/04/22 04:01:14;;;;;;;40.10;23.77;;;9.90;83.20;;;8.86;68.43;98574.22;5145286;27;20399;-80
2021/04/22 04:03:40;;;;;;;35.80;24.85;;;9.90;83.60;;;8.73;68.98;98576.91;5124057;28;20422;-80
2021/04/22 04:06:06;;;;;;;35.37;23.77;;;9.80;84.20;;;8.71;68.81;98584.25;5144778;27;20500;-80
2021/04/22 04:08:33;;;;;;;35.20;18.98;;;9.70;84.20;;;8.53;69.20;98589.38;5147814;27;20411;-80
2021/04/22 04:10:59;;;;;;;40.92;23.38;;;9.60;84.40;;;8.47;69.33;98588.38;5153920;27;20410;-80
2021/04/22 04:13:26;;;;;;;35.97;19.15;;;9.50;85.10;;;8.34;69.26;98593.69;5153902;27;20398;-80
2021/04/22 04:15:52;;;;;;;39.80;24.02;;;9.40;84.60;;;8.43;69.09;98594.25;5151557;27;20410;-80
2021/04/22 04:18:19;;;;;;;35.55;24.27;;;9.50;84.70;;;8.48;69.46;98591.84;5145331;27;20423;-80
2021/04/22 04:20:45;;;;;;;34.73;21.17;;;9.50;85.00;;;8.35;69.03;98597.13;5146671;27;20466;-80
2021/04/22 04:23:12;;;;;;;36.33;21.48;;;9.40;84.40;;;8.33;69.14;98592.06;5146103;27;20450;-80
2021/04/22 04:25:38;;;;;;;37.92;21.98;;;9.30;84.40;;;8.20;69.58;98596.50;5145384;27;20555;-80
2021/04/22 04:28:05;;;;;;;50.97;20.63;;;9.20;85.10;;;8.19;69.16;98594.91;5146106;27;20789;-80
2021/04/22 04:30:32;;;;;;;39.97;22.85;;;9.30;84.80;;;8.27;69.10;98603.41;5144470;27;20406;-80
2021/04/22 04:32:58;;;;;;;33.95;22.52;;;9.30;84.80;;;8.24;68.98;98605.66;5141545;27;20398;-81
2021/04/22 04:35:25;;;;;;;37.95;23.90;;;9.20;84.50;;;8.33;68.66;98601.81;5141323;27;20406;-82
2021/04/22 04:37:51;;;;;;;35.28;22.80;;;9.30;84.20;;;8.25;68.95;98610.72;5142716;27;20395;-80
2021/04/22 04:40:18;;;;;;;33.47;22.05;;;9.30;84.20;;;8.30;68.52;98618.81;5119628;27;20424;-80
2021/04/22 04:42:45;;;;;;;40.00;24.97;;;9.30;84.10;;;8.34;68.97;98617.44;5122685;28;20474;-80
2021/04/22 04:45:16;;;;;;;33.45;23.38;;;9.30;84.50;;;8.35;68.48;98621.69;5145095;27;20410;-81
2021/04/22 04:47:44;;;;;;;36.85;22.67;;;9.40;83.80;;;8.42;67.96;98629.59;5126527;27;20427;-80
2021/04/22 04:50:12;;;;;;;41.60;23.40;;;9.40;83.40;;;8.35;68.16;98634.06;5145051;27;20418;-80
2021/04/22 04:52:39;;;;;;;36.63;23.35;;;9.40;83.60;;;8.40;68.44;98643.00;5146414;27;20397;-80
2021/04/22 04:55:08;;;;;;;39.38;23.63;;;9.40;84.00;;;8.30;68.57;98641.75;5128700;27;20418;-80
2021/04/22 04:57:34;;;;;;;35.33;22.30;;;9.30;84.00;;;8.30;68.38;98647.84;5147606;27;20781;-80
2021/04/22 05:00:00;;;;;;;35.13;22.08;;;9.30;83.90;;;8.24;68.74;98650.50;5146399;27;20410;-80
2021/04/22 05:02:27;;;;;;;39.45;21.92;;;9.30;83.90;;;8.13;69.08;98651.91;5143181;27;20399;-79
2021/04/22 05:04:54;;;;;;;36.88;22.42;;;9.20;84.40;;;8.11;69.39;98656.59;5142884;27;20411;-80
2021/04/22 05:07:20;;;;;;;34.88;20.95;;;9.20;85.00;;;8.09;69.38;98656.81;5134956;28;20426;-81
2021/04/22 05:09:46;;;;;;;41.83;22.55;;;9.10;84.80;;;8.24;69.03;98653.94;5152581;28;20513;-79
2021/04/22 05:12:12;;;;;;;31.48;21.42;;;9.20;84.80;;;8.16;69.17;98651.50;5152359;28;20391;-80
2021/04/22 05:14:39;;;;;;;32.75;20.25;;;9.20;84.60;;;8.05;69.05;98663.47;5132575;28;20541;-80
2021/04/22 05:17:05;;;;;;;31.52;22.23;;;9.10;84.50;;;8.17;69.15;98661.06;5142517;28;20413;-81
2021/04/22 05:19:31;;;;;;;37.67;21.00;;;9.10;84.80;;;8.13;68.87;98673.00;5141776;28;20534;-80
2021/04/22 05:21:58;;;;;;;36.75;21.05;;;9.10;84.50;;;8.18;69.01;98677.69;5145878;28;20724;-79
2021/04/22 05:24:25;;;;;;;36.72;19.98;;;9.20;84.70;;;8.27;68.71;98681.75;5142803;28;20394;-80
2021/04/22 05:26:51;;;;;;;39.65;22.35;;;9.20;84.20;;;8.21;69.02;98687.81;5143979;28;20434;-78
2021/04/22 05:29:17;;;;;;;38.25;21.38;;;9.20;84.60;;;8.38;68.06;98692.50;5124897;28;20423;-79
2021/04/22 05:31:44;;;;;;;33.50;19.67;;;9.40;83.80;;;8.32;68.29;98693.34;5144634;28;20402;-81
2021/04/22 05:34:10;;;;;;;34.75;19.23;;;9.40;83.80;;;8.23;68.51;98698.97;5145999;28;20414;-81
2021/04/22 05:36:37;;;;;;;30.90;20.23;;;9.30;83.70;;;8.45;68.28;98697.78;5144405;28;20483;-83
2021/04/22 05:39:05;;;;;;;38.58;22.73;;;9.40;83.80;;;8.59;67.34;98704.66;5142709;28;20399;-81
2021/04/22 05:41:33;;;;;;;37.67;22.55;;;9.60;83.10;;;8.59;67.75;98698.56;5142482;28;20413;-80
2021/04/22 05:43:59;;;;;;;33.13;19.83;;;9.60;83.30;;;8.48;67.93;98711.38;5145104;28;20406;-80
2021/04/22 05:46:26;;;;;;;37.80;22.63;;;9.50;83.10;;;8.47;67.88;98709.75;5142037;28;20406;-78
2021/04/22 05:48:52;;;;;;;35.28;19.85;;;9.40;83.50;;;8.54;67.77;98710.56;5147318;28;20422;-79
2021/04/22 05:51:18;;;;;;;43.67;22.10;;;9.50;83.20;;;8.46;68.17;98708.13;5127815;28;20411;-79
2021/04/22 05:53:45;;;;;;;40.33;23.08;;;9.50;83.70;;;8.36;68.36;98713.00;5144612;27;20413;-78
2021/04/22 05:56:12;;;;;;;40.38;22.45;;;9.40;83.80;;;8.43;68.17;98721.72;5147701;27;20932;-79
2021/04/22 05:58:38;;;;;;;38.67;21.63;;;9.40;83.60;;;8.36;68.55;98720.91;5150310;27;20399;-79
2021/04/22 06:01:05;;;;;;;51.13;22.77;;;9.40;83.90;;;8.45;68.34;98724.16;5155294;27;20406;-80
2021/04/22 06:03:32;;;;;;;39.33;19.10;;;9.40;83.80;;;8.23;68.44;98726.19;5155056;27;20788;-78
2021/04/22 06:05:58;;;;;;;40.03;22.30;;;9.30;83.70;;;8.27;68.85;98731.88;5155177;27;20407;-77
2021/04/22 06:08:24;;;;;;;39.08;23.38;;;9.30;84.30;;;8.40;68.79;98731.88;5153642;27;20438;-79
2021/04/22 06:10:51;;;;;;;42.05;22.52;;;9.40;84.40;;;8.55;68.00;98737.75;5154464;27;20410;-79
2021/04/22 06:13:18;;;;;;;44.87;22.83;;;9.50;83.70;;;8.54;67.98;98750.16;5155809;27;20399;-78
2021/04/22 06:15:44;;;;;;;40.60;23.92;;;9.50;83.40;;;8.58;68.36;98739.16;5155331;27;20402;-79
2021/04/22 06:18:10;;;;;;;32.70;19.23;;;9.50;83.90;;;8.32;68.29;98738.19;5139563;27;20540;-79
2021/04/22 06:20:37;;;;;;;46.35;24.60;;;9.50;83.40;;;8.46;68.75;98745.06;5156675;27;20414;-79
2021/04/22 06:23:03;;;;;;;33.88;20.63;;;9.40;84.50;;;8.12;69.53;98753.13;5157017;27;20398;-79
2021/04/22 06:25:30;;;;;;;46.63;24.30;;;9.20;84.80;;;8.23;69.59;98742.00;5148645;27;20439;-79
2021/04/22 06:27:58;;;;;;;36.15;20.00;;;9.30;85.10;;;8.16;69.82;98749.91;5129087;27;20411;-79
2021/04/22 06:30:27;;;;;;;40.17;24.83;;;9.20;85.20;;;8.45;68.57;98761.09;5130486;27;20426;-79
2021/04/22 06:32:54;;;;;;;34.22;17.23;;;9.40;84.60;;;8.14;69.40;98772.22;5146141;27;20403;-79
2021/04/22 06:35:22;;;;;;;37.22;21.10;;;9.20;84.50;;;8.15;69.29;98760.66;5144215;27;20399;-79
2021/04/22 06:37:49;;;;;;;36.70;20.30;;;9.20;84.90;;;8.19;69.18;98774.28;5145143;27;20826;-80
2021/04/22 06:40:19;;;;;;;42.42;21.63;;;9.20;84.90;;;8.35;68.19;98776.53;5138486;27;20474;-79
2021/04/22 06:42:46;;;;;;;35.83;19.40;;;9.30;84.40;;;8.21;68.71;98786.22;5127796;27;20409;-79
2021/04/22 06:45:15;;;;;;;37.20;19.50;;;9.20;84.10;;;8.35;68.49;98776.53;5126689;27;20490;-80
2021/04/22 06:47:43;;;;;;;41.28;20.33;;;9.40;84.00;;;8.42;67.63;98791.34;5141774;27;20425;-79
2021/04/22 06:50:13;;;;;;;38.20;22.52;;;9.50;84.20;;;8.58;67.55;98790.13;5145592;27;20426;-79
2021/04/22 06:52:40;;;;;;;44.22;20.58;;;9.40;83.60;;;8.78;65.85;98788.31;5144376;27;20754;-80
2021/04/22 06:55:16;;;;;;;33.78;19.13;;;9.70;81.70;;;8.84;65.76;98802.50;5150568;27;20477;-80
2021/04/22 06:57:42;;;;;;;36.33;19.58;;;9.80;81.00;;;8.64;66.78;98801.72;5157464;27;20426;-79
2021/04/22 07:00:13;;;;;;;33.75;18.73;;;9.70;82.00;;;8.32;67.41;98808.59;5138345;27;20418;-79
2021/04/22 07:02:39;;;;;;;35.45;18.48;;;9.30;82.70;;;8.21;67.29;98804.69;5154906;27;20443;-80
2021/04/22 07:05:09;;;;;;;35.45;16.85;;;9.30;82.50;;;8.10;68.00;98808.75;5146132;27;20930;-81
2021/04/22 07:07:36;;;;;;;40.17;17.25;;;9.10;83.30;;;8.19;68.09;98804.09;5144295;27;20418;-80
2021/04/22 07:10:05;;;;;;;32.00;16.38;;;9.20;83.60;;;8.17;67.60;98814.03;5126449;27;20422;-80
2021/04/22 07:12:31;;;;;;;35.97;20.10;;;9.10;83.00;;;8.54;66.44;98808.22;5146601;27;20432;-79
2021/04/22 07:14:57;;;;;;;31.80;18.50;;;9.40;82.30;;;8.86;65.28;98819.78;5145163;27;20446;-79
2021/04/22 07:17:24;;;;;;;31.08;19.23;;;9.70;81.00;;;9.11;64.09;98813.81;5148872;27;20402;-79
2021/04/22 07:19:50;;;;;;;27.65;13.63;;;10.10;79.30;;;8.55;65.32;98824.84;5132207;27;20700;-79
2021/04/22 07:22:18;;;;;;;34.63;18.48;;;9.80;79.60;;;8.73;65.47;98830.31;5150423;27;20390;-79
2021/04/22 07:24:44;;;;;;;35.13;17.50;;;9.70;80.60;;;8.58;64.97;98836.81;5149414;27;20414;-79
2021/04/22 07:27:11;;;;;;;33.85;17.30;;;9.70;80.00;;;8.49;65.89;98823.03;5132035;27;20436;-79
2021/04/22 07:29:40;;;;;;;36.72;16.02;;;9.50;80.90;;;8.51;65.07;98828.91;5130413;27;20467;-80
2021/04/22 07:32:06;;;;;;;37.45;17.38;;;9.60;80.10;;;8.59;65.49;98827.88;5145586;27;20406;-80
2021/04/22 07:34:33;;;;;;;37.90;15.90;;;9.60;80.80;;;8.62;64.53;98832.78;5146737;27;20437;-80
2021/04/22 07:36:59;;;;;;;39.08;18.55;;;9.60;79.70;;;8.79;64.65;98831.34;5149231;27;20401;-79
2021/04/22 07:39:26;;;;;;;35.33;17.40;;;9.70;80.10;;;8.82;64.24;98846.78;5148924;27;20432;-79
2021/04/22 07:41:53;;;;;;;33.42;17.15;;;9.80;79.50;;;8.79;64.30;98842.75;5147355;27;20401;-79
2021/04/22 07:44:19;;;;;;;34.40;17.92;;;9.80;79.00;;;8.72;64.64;98830.56;5147826;27;20415;-79
2021/04/22 07:46:46;;;;;;;34.20;15.55;;;9.70;79.60;;;8.62;64.14;98838.88;5129820;27;20430;-79
2021/04/22 07:49:15;;;;;;;30.13;15.85;;;9.80;78.60;;;8.46;64.75;98836.63;5148518;27;20402;-79
2021/04/22 07:51:41;;;;;;;30.77;15.27;;;9.60;79.40;;;8.80;64.76;98846.16;5146878;27;20426;-79
2021/04/22 07:54:07;;;;;;;33.13;17.33;;;9.70;79.80;;;8.86;64.08;98848.00;5148657;27;20684;-79
2021/04/22 07:56:35;;;;;;;31.63;17.48;;;9.80;78.90;;;9.28;62.22;98847.53;5147650;27;20478;-79
2021/04/22 07:59:02;;;;;;;28.20;13.57;;;10.10;78.40;;;8.94;62.62;98858.38;5147587;27;20425;-80
2021/04/22 08:01:29;;;;;;;31.67;13.95;;;10.10;77.10;;;9.11;61.97;98850.81;5146642;27;20422;-79
2021/04/22 08:03:56;;;;;;;35.30;14.90;;;10.20;76.40;;;8.95;62.56;98845.97;5147847;27;20399;-79
2021/04/22 08:06:22;;;;;;;29.60;13.63;;;9.90;77.70;;;8.85;62.49;98852.47;5146271;27;20397;-79
2021/04/22 08:08:49;;;;;;;32.35;17.02;;;9.90;77.00;;;9.16;62.08;98856.31;5144262;27;20418;-78
2021/04/22 08:11:15;;;;;;;33.10;14.90;;;10.00;77.20;;;9.09;61.13;98852.88;5143666;27;20418;-79
2021/04/22 08:13:42;;;;;;;27.88;14.82;;;10.10;75.30;;;9.35;60.59;98858.09;5145362;27;20402;-79
2021/04/22 08:16:09;;;;;;;32.08;15.38;;;10.20;75.20;;;9.70;59.33;98856.75;5142812;27;20407;-80
2021/04/22 08:18:35;;;;;;;24.13;11.70;;;10.50;73.90;;;9.14;59.74;98855.69;5141480;27;20413;-79
2021/04/22 08:21:02;;;;;;;29.02;14.38;;;10.40;73.00;;;9.50;59.23;98852.56;5143667;27;20410;-79
2021/04/22 08:23:32;;;;;;;33.03;13.63;;;10.30;73.90;;;9.29;59.49;98869.50;5125934;27;20464;-79
2021/04/22 08:26:01;;;;;;;29.83;13.75;;;10.30;73.60;;;9.19;60.42;98866.44;5143058;27;20414;-79
2021/04/22 08:28:29;;;;;;;32.10;13.73;;;10.20;74.80;;;9.18;59.86;98864.81;5145058;27;20541;-78
2021/04/22 08:31:00;;;;;;;24.65;12.00;;;10.20;74.10;;;9.00;61.27;98856.72;5144778;27;20414;-79
2021/04/22 08:33:30;;;;;;;32.08;13.25;;;10.00;75.20;;;9.28;59.32;98873.97;5145961;27;20399;-79
2021/04/22 08:35:57;;;;;;;24.88;12.57;;;10.30;73.90;;;9.42;59.06;98869.44;5147873;27;20424;-79
2021/04/22 08:38:24;;;;;;;30.77;13.40;;;10.30;73.40;;;9.76;57.41;98862.25;5154801;27;20422;-80
2021/04/22 08:40:51;;;;;;;25.00;12.80;;;10.60;71.70;;;9.96;56.31;98866.44;5155906;27;20436;-80
2021/04/22 08:43:18;;;;;;;26.73;12.88;;;10.90;70.30;;;10.30;55.73;98875.06;5153039;27;20402;-80
2021/04/22 08:45:45;;;;;;;27.53;13.07;;;11.10;69.70;;;10.33;55.09;98883.34;5147901;27;21071;-79
2021/04/22 08:48:13;;;;;;;29.95;14.65;;;11.20;68.50;;;10.04;55.86;98878.59;5150069;27;20441;-79
2021/04/22 08:50:43;;;;;;;26.10;13.15;;;11.10;68.50;;;10.29;55.35;98874.22;5151116;27;20516;-79
2021/04/22 08:53:14;;;;;;;29.27;13.65;;;11.10;69.10;;;10.39;54.84;98865.81;5148233;27;20428;-79
2021/04/22 08:55:40;;;;;;;26.95;11.35;;;11.30;68.40;;;10.10;55.89;98875.09;5147412;27;20837;-79
2021/04/22 08:58:07;;;;;;;29.70;12.75;;;11.30;68.60;;;9.75;56.84;98876.47;5144477;27;20486;-80
2021/04/22 09:00:39;;;;;;;29.75;12.30;;;10.80;69.90;;;9.49;57.76;98890.56;5146825;27;20505;-79
2021/04/22 09:03:06;;;;;;;28.27;12.82;;;10.60;70.80;;;9.69;57.22;98886.06;5147767;27;20447;-79
2021/04/22 09:05:33;;;;;;;25.43;12.77;;;10.60;70.80;;;9.95;56.27;98888.59;5143490;27;20753;-79
2021/04/22 09:08:00;;;;;;;24.02;11.00;;;10.80;70.00;;;9.65;55.71;98893.59;5127010;27;20440;-79
2021/04/22 09:10:27;;;;;;;28.20;11.50;;;10.90;68.60;;;9.20;57.25;98894.50;5148411;27;20413;-79
2021/04/22 09:13:00;;;;;;;24.15;12.73;;;10.30;70.50;;;9.28;57.44;98895.09;5151510;27;20791;-78
2021/04/22 09:15:27;;;;;;;26.95;13.57;;;10.30;71.00;;;9.87;55.64;98888.03;5154444;28;20485;-77
2021/04/22 09:18:00;;;;;;;26.33;12.90;;;10.60;70.00;;;10.29;54.65;98887.47;5155421;27;20402;-78
2021/04/22 09:20:30;;;;;;;27.30;11.38;;;11.10;68.40;;;10.56;53.45;98897.88;5151827;27;20402;-78
2021/04/22 09:22:58;;;;;;;25.30;11.77;;;11.40;66.80;;;10.69;52.87;98893.31;5152105;27;20500;-77
2021/04/22 09:25:26;;;;;;;27.13;13.00;;;11.60;65.90;;;10.90;52.25;98902.72;5152126;27;20552;-80
2021/04/22 09:28:03;;;;;;;24.63;11.63;;;11.70;65.10;;;10.58;52.79;98899.31;5154470;27;20421;-79
2021/04/22 09:30:36;;;;;;;23.17;10.75;;;11.60;65.20;;;10.05;54.23;98891.63;5159067;27;20408;-79
2021/04/22 09:33:03;;;;;;;26.17;12.00;;;11.10;67.20;;;10.26;53.56;98895.81;5156990;27;20406;-79
2021/04/22 09:35:31;;;;;;;23.58;10.55;;;11.10;66.90;;;10.58;52.35;98886.06;5152325;27;20413;-78
2021/04/22 09:38:01;;;;;;;37.88;11.18;;;11.40;65.10;;;10.85;51.42;98899.91;5133622;27;20407;-80
2021/04/22 09:40:36;;;;;;;23.80;10.15;;;11.70;64.00;;;10.31;51.83;98893.34;5150644;27;20416;-79
2021/04/22 09:43:07;;;;;;;26.37;10.77;;;11.30;64.30;;;10.77;51.06;98895.69;5149674;27;20539;-80
2021/04/22 09:45:35;;;;;;;29.55;9.18;;;11.60;63.80;;;10.15;52.14;98895.66;5149361;27;20480;-80
2021/04/22 09:48:19;;;;;;;24.80;11.63;;;11.30;63.70;;;9.92;53.04;98901.44;5148120;27;20410;-80
2021/04/22 09:50:46;;;;;;;15.30;8.43;;;10.90;65.60;;;10.26;51.69;98901.13;5148021;27;20417;-79
2021/04/22 09:53:16;;;;;;;20.23;9.77;;;11.10;64.10;;;10.59;50.74;98897.47;5148565;27;20406;-79
2021/04/22 09:55:43;;;;;;;23.23;9.85;;;11.40;63.40;;;10.94;48.97;98903.94;5131894;27;20466;-80
2021/04/22 09:58:10;;;;;;;25.40;9.15;;;11.80;61.20;;;10.78;48.78;98899.16;5152213;27;20437;-78
2021/04/22 10:00:37;;;;;;;22.92;9.00;;;11.80;60.40;;;10.96;47.98;98898.41;5150726;27;20421;-79
2021/04/22 10:03:09;;;;;;;20.58;8.73;;;11.80;60.60;;;10.65;47.87;98894.78;5135047;27;20504;-79
2021/04/22 10:05:38;;;;;;;17.45;8.23;;;11.80;59.10;;;10.38;48.83;98899.41;5152964;27;20615;-79
2021/04/22 10:08:08;;;;;;;18.08;7.75;;;11.40;59.40;;;10.11;48.00;98900.53;5150830;27;20450;-80
2021/04/22 10:10:37;;;;;;;22.15;8.10;;;11.30;58.70;;;10.27;46.85;98900.09;5152264;27;20427;-80
2021/04/22 10:13:07;;;;;;;15.75;8.05;;;11.30;58.20;;;10.68;45.98;98904.91;5151294;27;20457;-80